sensor_id;sensor_type;location;lat;lon;timestamp;P1;durP1;ratioP1;P2;durP2;ratioP2
9370;SDS011;4725;48.384;8.984;2024-02-26T00:02:09;1.13;;;0.87;;
9370;SDS011;4725;48.384;8.984;2024-02-26T00:04:37;1.03;;;0.80;;
9370;SDS011;4725;48.384;8.984;2024-02-26T00:07:04;0.83;;;0.60;;
9370;SDS011;4725;48.384;8.984;2024-02-26T00:09:31;1.07;;;0.77;;
9370;SDS011;4725;48.384;8.984;2024-02-26T00:12:00;1.00;;;0.80;;
9370;SDS011;4725;48.384;8.984;2024-02-26T00:14:28;4.77;;;0.80;;
9370;SDS011;4725;48.384;8.984;2024-02-26T00:16:56;0.80;;;0.70;;
9370;SDS011;4725;48.384;8.984;2024-02-26T00:19:23;0.77;;;0.70;;
9370;SDS011;4725;48.384;8.984;2024-02-26T00:21:51;1.13;;;0.83;;
9370;SDS011;4725;48.384;8.984;2024-02-26T00:24:20;3.03;;;0.80;;
9370;SDS011;4725;48.384;8.984;2024-02-26T00:26:47;0.80;;;0.80;;
9370;SDS011;4725;48.384;8.984;2024-02-26T00:29:19;0.97;;;0.87;;
9370;SDS011;4725;48.384;8.984;2024-02-26T00:31:46;2.73;;;0.70;;
9370;SDS011;4725;48.384;8.984;2024-02-26T00:34:13;0.80;;;0.50;;
9370;SDS011;4725;48.384;8.984;2024-02-26T00:36:40;1.07;;;0.60;;
9370;SDS011;4725;48.384;8.984;2024-02-26T00:39:09;1.27;;;0.70;;
9370;SDS011;4725;48.384;8.984;2024-02-26T00:41:38;0.50;;;0.50;;
9370;SDS011;4725;48.384;8.984;2024-02-26T00:44:05;0.97;;;0.70;;
9370;SDS011;4725;48.384;8.984;2024-02-26T00:46:32;0.83;;;0.70;;
9370;SDS011;4725;48.384;8.984;2024-02-26T00:49:00;0.83;;;0.80;;
9370;SDS011;4725;48.384;8.984;2024-02-26T00:51:27;0.73;;;0.73;;
9370;SDS011;4725;48.384;8.984;2024-02-26T00:53:55;2.33;;;0.90;;
9370;SDS011;4725;48.384;8.984;2024-02-26T00:56:23;1.47;;;0.90;;
9370;SDS011;4725;48.384;8.984;2024-02-26T00:58:50;1.60;;;0.77;;
9370;SDS011;4725;48.384;8.984;2024-02-26T01:01:17;0.87;;;0.70;;
9370;SDS011;4725;48.384;8.984;2024-02-26T01:03:44;1.60;;;0.77;;
9370;SDS011;4725;48.384;8.984;2024-02-26T01:06:12;0.90;;;0.73;;
9370;SDS011;4725;48.384;8.984;2024-02-26T01:08:39;0.80;;;0.67;;
9370;SDS011;4725;48.384;8.984;2024-02-26T01:11:06;1.23;;;1.13;;
9370;SDS011;4725;48.384;8.984;2024-02-26T01:13:35;3.73;;;2.20;;
9370;SDS011;4725;48.384;8.984;2024-02-26T01:16:02;0.80;;;0.80;;
9370;SDS011;4725;48.384;8.984;2024-02-26T01:18:29;1.80;;;0.70;;
9370;SDS011;4725;48.384;8.984;2024-02-26T01:20:56;1.20;;;0.83;;
9370;SDS011;4725;48.384;8.984;2024-02-26T01:23:23;0.70;;;0.70;;
9370;SDS011;4725;48.384;8.984;2024-02-26T01:25:50;1.43;;;0.70;;
9370;SDS011;4725;48.384;8.984;2024-02-26T01:28:17;0.93;;;0.67;;
9370;SDS011;4725;48.384;8.984;2024-02-26T01:30:45;0.73;;;0.70;;
9370;SDS011;4725;48.384;8.984;2024-02-26T01:33:12;1.90;;;0.70;;
9370;SDS011;4725;48.384;8.984;2024-02-26T01:35:39;0.87;;;0.80;;
9370;SDS011;4725;48.384;8.984;2024-02-26T01:38:06;0.67;;;0.60;;
9370;SDS011;4725;48.384;8.984;2024-02-26T01:40:33;1.23;;;0.70;;
9370;SDS011;4725;48.384;8.984;2024-02-26T01:43:01;0.73;;;0.70;;
9370;SDS011;4725;48.384;8.984;2024-02-26T01:45:28;1.00;;;0.73;;
9370;SDS011;4725;48.384;8.984;2024-02-26T01:47:57;0.63;;;0.63;;
9370;SDS011;4725;48.384;8.984;2024-02-26T01:50:24;1.20;;;0.93;;
9370;SDS011;4725;48.384;8.984;2024-02-26T01:52:51;0.90;;;0.60;;
9370;SDS011;4725;48.384;8.984;2024-02-26T01:55:19;0.87;;;0.80;;
9370;SDS011;4725;48.384;8.984;2024-02-26T01:57:47;0.70;;;0.70;;
9370;SDS011;4725;48.384;8.984;2024-02-26T02:00:17;1.03;;;0.90;;
9370;SDS011;4725;48.384;8.984;2024-02-26T02:02:46;1.20;;;1.10;;
9370;SDS011;4725;48.384;8.984;2024-02-26T02:05:15;0.97;;;0.70;;
9370;SDS011;4725;48.384;8.984;2024-02-26T02:07:43;0.63;;;0.50;;
9370;SDS011;4725;48.384;8.984;2024-02-26T02:10:11;0.80;;;0.80;;
9370;SDS011;4725;48.384;8.984;2024-02-26T02:12:38;1.17;;;0.60;;
9370;SDS011;4725;48.384;8.984;2024-02-26T02:15:06;1.27;;;0.77;;
9370;SDS011;4725;48.384;8.984;2024-02-26T02:17:33;4.43;;;1.13;;
9370;SDS011;4725;48.384;8.984;2024-02-26T02:20:00;1.83;;;1.17;;
9370;SDS011;4725;48.384;8.984;2024-02-26T02:22:29;1.13;;;1.00;;
9370;SDS011;4725;48.384;8.984;2024-02-26T02:24:58;1.13;;;1.00;;
9370;SDS011;4725;48.384;8.984;2024-02-26T02:27:25;1.67;;;1.27;;
9370;SDS011;4725;48.384;8.984;2024-02-26T02:29:53;2.30;;;1.10;;
9370;SDS011;4725;48.384;8.984;2024-02-26T02:32:20;3.50;;;0.83;;
9370;SDS011;4725;48.384;8.984;2024-02-26T02:34:49;1.03;;;0.90;;
9370;SDS011;4725;48.384;8.984;2024-02-26T02:37:16;1.03;;;0.90;;
9370;SDS011;4725;48.384;8.984;2024-02-26T02:39:44;1.20;;;0.90;;
9370;SDS011;4725;48.384;8.984;2024-02-26T02:42:11;1.30;;;1.03;;
9370;SDS011;4725;48.384;8.984;2024-02-26T02:44:38;0.90;;;0.70;;
9370;SDS011;4725;48.384;8.984;2024-02-26T02:47:05;1.17;;;0.87;;
9370;SDS011;4725;48.384;8.984;2024-02-26T02:49:32;0.90;;;0.80;;
9370;SDS011;4725;48.384;8.984;2024-02-26T02:51:58;1.30;;;0.90;;
9370;SDS011;4725;48.384;8.984;2024-02-26T02:54:26;2.27;;;0.87;;
9370;SDS011;4725;48.384;8.984;2024-02-26T02:56:54;1.40;;;0.90;;
9370;SDS011;4725;48.384;8.984;2024-02-26T02:59:21;4.23;;;1.40;;
9370;SDS011;4725;48.384;8.984;2024-02-26T03:01:48;2.13;;;1.70;;
9370;SDS011;4725;48.384;8.984;2024-02-26T03:04:15;2.50;;;1.90;;
9370;SDS011;4725;48.384;8.984;2024-02-26T03:06:42;2.63;;;1.70;;
9370;SDS011;4725;48.384;8.984;2024-02-26T03:09:09;3.27;;;2.10;;
9370;SDS011;4725;48.384;8.984;2024-02-26T03:11:36;4.07;;;1.90;;
9370;SDS011;4725;48.384;8.984;2024-02-26T03:14:05;2.23;;;1.80;;
9370;SDS011;4725;48.384;8.984;2024-02-26T03:16:32;2.50;;;1.60;;
9370;SDS011;4725;48.384;8.984;2024-02-26T03:18:59;1.97;;;1.50;;
9370;SDS011;4725;48.384;8.984;2024-02-26T03:21:26;7.03;;;4.57;;
9370;SDS011;4725;48.384;8.984;2024-02-26T03:23:54;5.43;;;3.87;;
9370;SDS011;4725;48.384;8.984;2024-02-26T03:26:22;5.63;;;4.33;;
9370;SDS011;4725;48.384;8.984;2024-02-26T03:28:49;7.70;;;3.90;;
9370;SDS011;4725;48.384;8.984;2024-02-26T03:31:17;6.50;;;4.67;;
9370;SDS011;4725;48.384;8.984;2024-02-26T03:33:44;6.33;;;4.03;;
9370;SDS011;4725;48.384;8.984;2024-02-26T03:36:11;3.73;;;2.50;;
9370;SDS011;4725;48.384;8.984;2024-02-26T03:38:38;3.43;;;2.23;;
9370;SDS011;4725;48.384;8.984;2024-02-26T03:41:05;3.43;;;2.30;;
9370;SDS011;4725;48.384;8.984;2024-02-26T03:43:33;3.27;;;1.73;;
9370;SDS011;4725;48.384;8.984;2024-02-26T03:46:00;1.90;;;1.43;;
9370;SDS011;4725;48.384;8.984;2024-02-26T03:48:28;4.27;;;1.80;;
9370;SDS011;4725;48.384;8.984;2024-02-26T03:50:55;2.57;;;1.50;;
9370;SDS011;4725;48.384;8.984;2024-02-26T03:53:22;0.50;;;0.50;;
9370;SDS011;4725;48.384;8.984;2024-02-26T03:55:49;1.47;;;1.20;;
9370;SDS011;4725;48.384;8.984;2024-02-26T03:58:17;1.10;;;1.00;;
9370;SDS011;4725;48.384;8.984;2024-02-26T04:00:43;1.47;;;1.10;;
9370;SDS011;4725;48.384;8.984;2024-02-26T04:03:12;1.80;;;1.20;;
9370;SDS011;4725;48.384;8.984;2024-02-26T04:05:40;1.47;;;0.97;;
9370;SDS011;4725;48.384;8.984;2024-02-26T04:08:07;2.30;;;1.10;;
9370;SDS011;4725;48.384;8.984;2024-02-26T04:10:35;1.67;;;1.17;;
9370;SDS011;4725;48.384;8.984;2024-02-26T04:13:04;0.80;;;0.60;;
9370;SDS011;4725;48.384;8.984;2024-02-26T04:15:31;1.60;;;1.17;;
9370;SDS011;4725;48.384;8.984;2024-02-26T04:17:58;2.93;;;0.63;;
9370;SDS011;4725;48.384;8.984;2024-02-26T04:20:25;1.47;;;0.40;;
9370;SDS011;4725;48.384;8.984;2024-02-26T04:22:54;0.20;;;0.20;;
9370;SDS011;4725;48.384;8.984;2024-02-26T04:25:21;1.63;;;0.40;;
9370;SDS011;4725;48.384;8.984;2024-02-26T04:27:48;0.40;;;0.40;;
9370;SDS011;4725;48.384;8.984;2024-02-26T04:30:15;0.30;;;0.30;;
9370;SDS011;4725;48.384;8.984;2024-02-26T04:32:43;1.93;;;0.73;;
9370;SDS011;4725;48.384;8.984;2024-02-26T04:35:10;0.40;;;0.37;;
9370;SDS011;4725;48.384;8.984;2024-02-26T04:37:37;0.30;;;0.30;;
9370;SDS011;4725;48.384;8.984;2024-02-26T04:40:06;0.40;;;0.40;;
9370;SDS011;4725;48.384;8.984;2024-02-26T04:42:34;0.40;;;0.40;;
9370;SDS011;4725;48.384;8.984;2024-02-26T04:45:01;0.50;;;0.50;;
9370;SDS011;4725;48.384;8.984;2024-02-26T04:47:28;0.50;;;0.50;;
9370;SDS011;4725;48.384;8.984;2024-02-26T04:49:55;0.60;;;0.60;;
9370;SDS011;4725;48.384;8.984;2024-02-26T04:52:22;0.90;;;0.60;;
9370;SDS011;4725;48.384;8.984;2024-02-26T04:54:49;0.80;;;0.80;;
9370;SDS011;4725;48.384;8.984;2024-02-26T04:57:17;0.97;;;0.80;;
9370;SDS011;4725;48.384;8.984;2024-02-26T04:59:44;1.37;;;0.90;;
9370;SDS011;4725;48.384;8.984;2024-02-26T05:02:11;1.50;;;1.10;;
9370;SDS011;4725;48.384;8.984;2024-02-26T05:04:38;2.23;;;1.23;;
9370;SDS011;4725;48.384;8.984;2024-02-26T05:07:05;2.53;;;1.40;;
9370;SDS011;4725;48.384;8.984;2024-02-26T05:09:33;3.03;;;2.40;;
9370;SDS011;4725;48.384;8.984;2024-02-26T05:12:00;3.97;;;3.00;;
9370;SDS011;4725;48.384;8.984;2024-02-26T05:14:28;5.17;;;2.80;;
9370;SDS011;4725;48.384;8.984;2024-02-26T05:16:55;6.77;;;3.53;;
9370;SDS011;4725;48.384;8.984;2024-02-26T05:19:22;3.27;;;2.53;;
9370;SDS011;4725;48.384;8.984;2024-02-26T05:21:49;6.33;;;2.87;;
9370;SDS011;4725;48.384;8.984;2024-02-26T05:24:16;3.00;;;2.00;;
9370;SDS011;4725;48.384;8.984;2024-02-26T05:26:43;2.93;;;2.10;;
9370;SDS011;4725;48.384;8.984;2024-02-26T05:29:10;4.73;;;1.93;;
9370;SDS011;4725;48.384;8.984;2024-02-26T05:31:38;2.50;;;1.87;;
9370;SDS011;4725;48.384;8.984;2024-02-26T05:34:05;4.73;;;2.60;;
9370;SDS011;4725;48.384;8.984;2024-02-26T05:36:32;3.67;;;2.73;;
9370;SDS011;4725;48.384;8.984;2024-02-26T05:38:59;3.60;;;2.63;;
9370;SDS011;4725;48.384;8.984;2024-02-26T05:41:26;2.57;;;1.97;;
9370;SDS011;4725;48.384;8.984;2024-02-26T05:43:53;2.67;;;1.80;;
9370;SDS011;4725;48.384;8.984;2024-02-26T05:46:20;2.80;;;1.90;;
9370;SDS011;4725;48.384;8.984;2024-02-26T05:48:50;2.67;;;2.03;;
9370;SDS011;4725;48.384;8.984;2024-02-26T05:51:17;1.90;;;1.70;;
9370;SDS011;4725;48.384;8.984;2024-02-26T05:53:44;1.60;;;1.27;;
9370;SDS011;4725;48.384;8.984;2024-02-26T05:56:11;2.57;;;1.67;;
9370;SDS011;4725;48.384;8.984;2024-02-26T05:58:38;4.60;;;2.50;;
9370;SDS011;4725;48.384;8.984;2024-02-26T06:01:05;4.77;;;2.77;;
9370;SDS011;4725;48.384;8.984;2024-02-26T06:03:32;7.63;;;2.57;;
9370;SDS011;4725;48.384;8.984;2024-02-26T06:06:00;5.00;;;3.47;;
9370;SDS011;4725;48.384;8.984;2024-02-26T06:08:27;4.27;;;2.93;;
9370;SDS011;4725;48.384;8.984;2024-02-26T06:10:54;3.33;;;2.33;;
9370;SDS011;4725;48.384;8.984;2024-02-26T06:13:21;2.00;;;1.60;;
9370;SDS011;4725;48.384;8.984;2024-02-26T06:15:48;2.87;;;1.80;;
9370;SDS011;4725;48.384;8.984;2024-02-26T06:18:15;2.83;;;1.20;;
9370;SDS011;4725;48.384;8.984;2024-02-26T06:20:42;2.03;;;1.23;;
9370;SDS011;4725;48.384;8.984;2024-02-26T06:23:11;1.87;;;1.07;;
9370;SDS011;4725;48.384;8.984;2024-02-26T06:25:38;1.70;;;1.20;;
9370;SDS011;4725;48.384;8.984;2024-02-26T06:28:06;2.33;;;1.40;;
9370;SDS011;4725;48.384;8.984;2024-02-26T06:30:33;1.77;;;1.60;;
9370;SDS011;4725;48.384;8.984;2024-02-26T06:33:01;1.77;;;1.30;;
9370;SDS011;4725;48.384;8.984;2024-02-26T06:35:28;1.30;;;1.17;;
9370;SDS011;4725;48.384;8.984;2024-02-26T06:37:55;2.00;;;1.50;;
9370;SDS011;4725;48.384;8.984;2024-02-26T06:40:23;1.77;;;1.30;;
9370;SDS011;4725;48.384;8.984;2024-02-26T06:42:50;1.80;;;1.40;;
9370;SDS011;4725;48.384;8.984;2024-02-26T06:45:17;1.40;;;1.30;;
9370;SDS011;4725;48.384;8.984;2024-02-26T06:47:44;1.70;;;1.50;;
9370;SDS011;4725;48.384;8.984;2024-02-26T06:50:11;1.33;;;1.13;;
9370;SDS011;4725;48.384;8.984;2024-02-26T06:52:39;1.83;;;1.23;;
9370;SDS011;4725;48.384;8.984;2024-02-26T06:55:06;2.33;;;1.20;;
9370;SDS011;4725;48.384;8.984;2024-02-26T06:57:35;1.80;;;1.20;;
9370;SDS011;4725;48.384;8.984;2024-02-26T07:00:02;4.87;;;2.63;;
9370;SDS011;4725;48.384;8.984;2024-02-26T07:02:30;3.70;;;2.30;;
9370;SDS011;4725;48.384;8.984;2024-02-26T07:04:56;14.07;;;7.27;;
9370;SDS011;4725;48.384;8.984;2024-02-26T07:07:24;5.93;;;4.20;;
9370;SDS011;4725;48.384;8.984;2024-02-26T07:09:51;3.90;;;2.63;;
9370;SDS011;4725;48.384;8.984;2024-02-26T07:12:17;7.70;;;6.47;;
9370;SDS011;4725;48.384;8.984;2024-02-26T07:14:47;6.43;;;4.93;;
9370;SDS011;4725;48.384;8.984;2024-02-26T07:17:15;6.23;;;4.27;;
9370;SDS011;4725;48.384;8.984;2024-02-26T07:19:42;4.23;;;3.83;;
9370;SDS011;4725;48.384;8.984;2024-02-26T07:22:09;2.10;;;1.87;;
9370;SDS011;4725;48.384;8.984;2024-02-26T07:24:35;5.07;;;4.17;;
9370;SDS011;4725;48.384;8.984;2024-02-26T07:27:02;2.93;;;2.50;;
9370;SDS011;4725;48.384;8.984;2024-02-26T07:29:29;1.97;;;1.60;;
9370;SDS011;4725;48.384;8.984;2024-02-26T07:31:58;1.27;;;1.10;;
9370;SDS011;4725;48.384;8.984;2024-02-26T07:34:24;2.07;;;1.10;;
9370;SDS011;4725;48.384;8.984;2024-02-26T07:36:54;2.57;;;1.10;;
9370;SDS011;4725;48.384;8.984;2024-02-26T07:39:21;1.27;;;1.00;;
9370;SDS011;4725;48.384;8.984;2024-02-26T07:41:48;2.77;;;1.10;;
9370;SDS011;4725;48.384;8.984;2024-02-26T07:44:17;2.97;;;2.37;;
9370;SDS011;4725;48.384;8.984;2024-02-26T07:46:44;2.47;;;1.37;;
9370;SDS011;4725;48.384;8.984;2024-02-26T07:49:12;1.50;;;1.07;;
9370;SDS011;4725;48.384;8.984;2024-02-26T07:51:39;1.60;;;1.50;;
9370;SDS011;4725;48.384;8.984;2024-02-26T07:54:06;1.97;;;1.73;;
9370;SDS011;4725;48.384;8.984;2024-02-26T07:56:32;2.10;;;1.90;;
9370;SDS011;4725;48.384;8.984;2024-02-26T07:58:59;1.87;;;1.50;;
9370;SDS011;4725;48.384;8.984;2024-02-26T08:01:26;2.23;;;1.00;;
9370;SDS011;4725;48.384;8.984;2024-02-26T08:03:53;1.60;;;1.07;;
9370;SDS011;4725;48.384;8.984;2024-02-26T08:06:22;1.70;;;1.33;;
9370;SDS011;4725;48.384;8.984;2024-02-26T08:08:50;1.30;;;1.13;;
9370;SDS011;4725;48.384;8.984;2024-02-26T08:11:17;2.53;;;1.50;;
9370;SDS011;4725;48.384;8.984;2024-02-26T08:13:44;1.80;;;1.20;;
9370;SDS011;4725;48.384;8.984;2024-02-26T08:16:11;5.67;;;1.37;;
9370;SDS011;4725;48.384;8.984;2024-02-26T08:18:38;1.57;;;1.20;;
9370;SDS011;4725;48.384;8.984;2024-02-26T08:21:05;1.57;;;1.10;;
9370;SDS011;4725;48.384;8.984;2024-02-26T08:23:34;3.83;;;1.40;;
9370;SDS011;4725;48.384;8.984;2024-02-26T08:26:01;3.87;;;1.50;;
9370;SDS011;4725;48.384;8.984;2024-02-26T08:28:29;2.20;;;1.60;;
9370;SDS011;4725;48.384;8.984;2024-02-26T08:30:56;2.23;;;1.50;;
9370;SDS011;4725;48.384;8.984;2024-02-26T08:33:23;2.87;;;1.77;;
9370;SDS011;4725;48.384;8.984;2024-02-26T08:35:50;1.70;;;1.40;;
9370;SDS011;4725;48.384;8.984;2024-02-26T08:38:17;3.27;;;1.57;;
9370;SDS011;4725;48.384;8.984;2024-02-26T08:40:45;2.20;;;1.57;;
9370;SDS011;4725;48.384;8.984;2024-02-26T08:43:12;3.53;;;1.83;;
9370;SDS011;4725;48.384;8.984;2024-02-26T08:45:39;1.53;;;1.07;;
9370;SDS011;4725;48.384;8.984;2024-02-26T08:48:06;2.87;;;1.80;;
9370;SDS011;4725;48.384;8.984;2024-02-26T08:50:33;2.00;;;1.60;;
9370;SDS011;4725;48.384;8.984;2024-02-26T08:53:00;1.37;;;1.27;;
9370;SDS011;4725;48.384;8.984;2024-02-26T08:55:29;1.87;;;1.60;;
9370;SDS011;4725;48.384;8.984;2024-02-26T08:57:57;3.57;;;2.27;;
9370;SDS011;4725;48.384;8.984;2024-02-26T09:00:24;4.00;;;2.10;;
9370;SDS011;4725;48.384;8.984;2024-02-26T09:02:50;2.10;;;1.90;;
9370;SDS011;4725;48.384;8.984;2024-02-26T09:05:17;5.50;;;1.80;;
9370;SDS011;4725;48.384;8.984;2024-02-26T09:07:44;1.93;;;1.60;;
9370;SDS011;4725;48.384;8.984;2024-02-26T09:10:12;3.00;;;2.03;;
9370;SDS011;4725;48.384;8.984;2024-02-26T09:12:39;3.03;;;1.83;;
9370;SDS011;4725;48.384;8.984;2024-02-26T09:15:07;2.37;;;1.80;;
9370;SDS011;4725;48.384;8.984;2024-02-26T09:17:35;3.60;;;1.70;;
9370;SDS011;4725;48.384;8.984;2024-02-26T09:20:02;1.60;;;1.43;;
9370;SDS011;4725;48.384;8.984;2024-02-26T09:22:30;1.53;;;1.43;;
9370;SDS011;4725;48.384;8.984;2024-02-26T09:24:57;2.17;;;1.47;;
9370;SDS011;4725;48.384;8.984;2024-02-26T09:27:24;2.00;;;1.57;;
9370;SDS011;4725;48.384;8.984;2024-02-26T09:29:51;2.33;;;2.10;;
9370;SDS011;4725;48.384;8.984;2024-02-26T09:32:19;3.83;;;2.40;;
9370;SDS011;4725;48.384;8.984;2024-02-26T09:34:46;3.17;;;1.77;;
9370;SDS011;4725;48.384;8.984;2024-02-26T09:37:13;2.67;;;1.80;;
9370;SDS011;4725;48.384;8.984;2024-02-26T09:39:40;1.93;;;1.70;;
9370;SDS011;4725;48.384;8.984;2024-02-26T09:42:07;3.33;;;2.70;;
9370;SDS011;4725;48.384;8.984;2024-02-26T09:44:39;4.25;;;1.70;;
9370;SDS011;4725;48.384;8.984;2024-02-26T09:47:07;6.00;;;1.98;;
9370;SDS011;4725;48.384;8.984;2024-02-26T09:49:39;2.15;;;1.95;;
9370;SDS011;4725;48.384;8.984;2024-02-26T09:52:07;2.08;;;1.60;;
9370;SDS011;4725;48.384;8.984;2024-02-26T09:54:36;1.90;;;1.70;;
9370;SDS011;4725;48.384;8.984;2024-02-26T09:57:04;2.97;;;2.13;;
9370;SDS011;4725;48.384;8.984;2024-02-26T09:59:39;1.70;;;1.35;;
9370;SDS011;4725;48.384;8.984;2024-02-26T10:02:08;2.97;;;1.60;;
9370;SDS011;4725;48.384;8.984;2024-02-26T10:04:37;3.47;;;1.98;;
9370;SDS011;4725;48.384;8.984;2024-02-26T10:07:09;4.55;;;1.70;;
9370;SDS011;4725;48.384;8.984;2024-02-26T10:09:37;4.50;;;1.90;;
9370;SDS011;4725;48.384;8.984;2024-02-26T10:12:04;1.80;;;1.67;;
9370;SDS011;4725;48.384;8.984;2024-02-26T10:14:32;2.15;;;1.60;;
9370;SDS011;4725;48.384;8.984;2024-02-26T10:17:00;3.25;;;1.80;;
9370;SDS011;4725;48.384;8.984;2024-02-26T10:19:27;5.40;;;2.13;;
9370;SDS011;4725;48.384;8.984;2024-02-26T10:22:00;2.10;;;1.42;;
9370;SDS011;4725;48.384;8.984;2024-02-26T10:24:28;6.43;;;2.17;;
9370;SDS011;4725;48.384;8.984;2024-02-26T10:26:56;2.05;;;1.85;;
9370;SDS011;4725;48.384;8.984;2024-02-26T10:29:23;4.25;;;2.15;;
9370;SDS011;4725;48.384;8.984;2024-02-26T10:31:51;2.00;;;1.65;;
9370;SDS011;4725;48.384;8.984;2024-02-26T10:34:18;1.70;;;1.58;;
9370;SDS011;4725;48.384;8.984;2024-02-26T10:36:46;1.75;;;1.65;;
9370;SDS011;4725;48.384;8.984;2024-02-26T10:39:14;1.90;;;1.33;;
9370;SDS011;4725;48.384;8.984;2024-02-26T10:41:43;1.33;;;1.23;;
9370;SDS011;4725;48.384;8.984;2024-02-26T10:44:11;3.00;;;1.60;;
9370;SDS011;4725;48.384;8.984;2024-02-26T10:46:40;1.83;;;1.70;;
9370;SDS011;4725;48.384;8.984;2024-02-26T10:49:12;3.65;;;1.52;;
9370;SDS011;4725;48.384;8.984;2024-02-26T10:51:43;2.60;;;1.85;;
9370;SDS011;4725;48.384;8.984;2024-02-26T10:54:12;2.58;;;1.50;;
9370;SDS011;4725;48.384;8.984;2024-02-26T10:56:42;1.77;;;1.40;;
9370;SDS011;4725;48.384;8.984;2024-02-26T10:59:11;1.63;;;1.45;;
9370;SDS011;4725;48.384;8.984;2024-02-26T11:01:40;4.85;;;2.10;;
9370;SDS011;4725;48.384;8.984;2024-02-26T11:04:11;5.18;;;1.70;;
9370;SDS011;4725;48.384;8.984;2024-02-26T11:06:39;2.90;;;1.70;;
9370;SDS011;4725;48.384;8.984;2024-02-26T11:09:06;1.95;;;1.52;;
9370;SDS011;4725;48.384;8.984;2024-02-26T11:11:39;1.83;;;1.65;;
9370;SDS011;4725;48.384;8.984;2024-02-26T11:14:08;4.45;;;2.33;;
9370;SDS011;4725;48.384;8.984;2024-02-26T11:16:36;2.33;;;2.13;;
9370;SDS011;4725;48.384;8.984;2024-02-26T11:19:06;2.63;;;2.08;;
9370;SDS011;4725;48.384;8.984;2024-02-26T11:21:34;5.03;;;1.80;;
9370;SDS011;4725;48.384;8.984;2024-02-26T11:24:06;4.05;;;1.95;;
9370;SDS011;4725;48.384;8.984;2024-02-26T11:26:36;6.18;;;2.08;;
9370;SDS011;4725;48.384;8.984;2024-02-26T11:29:10;2.47;;;2.03;;
9370;SDS011;4725;48.384;8.984;2024-02-26T11:31:39;5.47;;;2.10;;
9370;SDS011;4725;48.384;8.984;2024-02-26T11:34:06;3.13;;;2.17;;
9370;SDS011;4725;48.384;8.984;2024-02-26T11:36:35;2.60;;;1.85;;
9370;SDS011;4725;48.384;8.984;2024-02-26T11:39:04;3.40;;;1.88;;
9370;SDS011;4725;48.384;8.984;2024-02-26T11:41:31;5.90;;;2.10;;
9370;SDS011;4725;48.384;8.984;2024-02-26T11:44:00;2.30;;;1.92;;
9370;SDS011;4725;48.384;8.984;2024-02-26T11:46:30;2.00;;;1.75;;
9370;SDS011;4725;48.384;8.984;2024-02-26T11:49:00;3.13;;;1.88;;
9370;SDS011;4725;48.384;8.984;2024-02-26T11:51:32;6.53;;;2.08;;
9370;SDS011;4725;48.384;8.984;2024-02-26T11:53:59;4.75;;;1.85;;
9370;SDS011;4725;48.384;8.984;2024-02-26T11:56:26;3.30;;;1.67;;
9370;SDS011;4725;48.384;8.984;2024-02-26T11:58:58;7.60;;;2.20;;
9370;SDS011;4725;48.384;8.984;2024-02-26T12:01:41;2.83;;;2.08;;
9370;SDS011;4725;48.384;8.984;2024-02-26T12:04:13;2.97;;;2.25;;
9370;SDS011;4725;48.384;8.984;2024-02-26T12:06:43;3.70;;;2.25;;
9370;SDS011;4725;48.384;8.984;2024-02-26T12:09:12;4.07;;;2.28;;
9370;SDS011;4725;48.384;8.984;2024-02-26T12:11:39;2.45;;;2.25;;
9370;SDS011;4725;48.384;8.984;2024-02-26T12:14:09;2.67;;;1.48;;
9370;SDS011;4725;48.384;8.984;2024-02-26T12:16:36;2.13;;;1.55;;
9370;SDS011;4725;48.384;8.984;2024-02-26T12:19:04;3.08;;;1.88;;
9370;SDS011;4725;48.384;8.984;2024-02-26T12:21:33;2.28;;;1.67;;
9370;SDS011;4725;48.384;8.984;2024-02-26T12:24:10;2.50;;;1.70;;
9370;SDS011;4725;48.384;8.984;2024-02-26T12:26:38;2.78;;;1.65;;
9370;SDS011;4725;48.384;8.984;2024-02-26T12:29:05;2.65;;;1.65;;
9370;SDS011;4725;48.384;8.984;2024-02-26T12:31:34;1.85;;;1.50;;
9370;SDS011;4725;48.384;8.984;2024-02-26T12:34:02;2.67;;;1.90;;
9370;SDS011;4725;48.384;8.984;2024-02-26T12:36:29;4.32;;;2.13;;
9370;SDS011;4725;48.384;8.984;2024-02-26T12:38:56;5.75;;;1.95;;
9370;SDS011;4725;48.384;8.984;2024-02-26T12:41:23;4.50;;;1.65;;
9370;SDS011;4725;48.384;8.984;2024-02-26T12:43:50;3.20;;;1.70;;
9370;SDS011;4725;48.384;8.984;2024-02-26T12:46:17;2.05;;;1.40;;
9370;SDS011;4725;48.384;8.984;2024-02-26T12:48:46;1.65;;;1.50;;
9370;SDS011;4725;48.384;8.984;2024-02-26T12:51:14;4.07;;;2.08;;
9370;SDS011;4725;48.384;8.984;2024-02-26T12:53:42;3.75;;;1.90;;
9370;SDS011;4725;48.384;8.984;2024-02-26T12:56:10;3.45;;;1.80;;
9370;SDS011;4725;48.384;8.984;2024-02-26T12:58:37;2.38;;;1.77;;
9370;SDS011;4725;48.384;8.984;2024-02-26T13:01:06;2.38;;;1.63;;
9370;SDS011;4725;48.384;8.984;2024-02-26T13:03:34;3.35;;;1.40;;
9370;SDS011;4725;48.384;8.984;2024-02-26T13:06:04;2.55;;;1.45;;
9370;SDS011;4725;48.384;8.984;2024-02-26T13:08:32;2.78;;;1.58;;
9370;SDS011;4725;48.384;8.984;2024-02-26T13:10:59;3.58;;;1.55;;
9370;SDS011;4725;48.384;8.984;2024-02-26T13:13:26;2.28;;;1.70;;
9370;SDS011;4725;48.384;8.984;2024-02-26T13:16:00;7.00;;;1.40;;
9370;SDS011;4725;48.384;8.984;2024-02-26T13:18:29;2.67;;;1.50;;
9370;SDS011;4725;48.384;8.984;2024-02-26T13:21:07;1.67;;;1.23;;
9370;SDS011;4725;48.384;8.984;2024-02-26T13:23:35;2.30;;;1.60;;
9370;SDS011;4725;48.384;8.984;2024-02-26T13:26:02;2.60;;;2.13;;
9370;SDS011;4725;48.384;8.984;2024-02-26T13:28:29;2.20;;;1.90;;
9370;SDS011;4725;48.384;8.984;2024-02-26T13:30:56;4.43;;;2.40;;
9370;SDS011;4725;48.384;8.984;2024-02-26T13:33:25;2.30;;;1.80;;
9370;SDS011;4725;48.384;8.984;2024-02-26T13:35:54;5.18;;;1.80;;
9370;SDS011;4725;48.384;8.984;2024-02-26T13:38:22;2.53;;;1.63;;
9370;SDS011;4725;48.384;8.984;2024-02-26T13:40:50;7.80;;;2.67;;
9370;SDS011;4725;48.384;8.984;2024-02-26T13:43:17;3.30;;;1.50;;
9370;SDS011;4725;48.384;8.984;2024-02-26T13:45:44;2.45;;;1.80;;
9370;SDS011;4725;48.384;8.984;2024-02-26T13:48:12;2.70;;;1.73;;
9370;SDS011;4725;48.384;8.984;2024-02-26T13:50:40;1.52;;;1.42;;
9370;SDS011;4725;48.384;8.984;2024-02-26T13:53:08;4.53;;;1.70;;
9370;SDS011;4725;48.384;8.984;2024-02-26T13:55:37;1.48;;;1.27;;
9370;SDS011;4725;48.384;8.984;2024-02-26T13:58:07;1.20;;;1.08;;
9370;SDS011;4725;48.384;8.984;2024-02-26T14:00:35;1.20;;;1.10;;
9370;SDS011;4725;48.384;8.984;2024-02-26T14:03:02;1.20;;;1.10;;
9370;SDS011;4725;48.384;8.984;2024-02-26T14:05:29;2.05;;;1.40;;
9370;SDS011;4725;48.384;8.984;2024-02-26T14:07:56;1.20;;;1.00;;
9370;SDS011;4725;48.384;8.984;2024-02-26T14:10:24;1.40;;;1.30;;
9370;SDS011;4725;48.384;8.984;2024-02-26T14:12:52;1.33;;;1.23;;
9370;SDS011;4725;48.384;8.984;2024-02-26T14:15:19;2.05;;;1.50;;
9370;SDS011;4725;48.384;8.984;2024-02-26T14:17:46;3.53;;;1.70;;
9370;SDS011;4725;48.384;8.984;2024-02-26T14:20:18;1.55;;;1.40;;
9370;SDS011;4725;48.384;8.984;2024-02-26T14:22:45;2.00;;;1.65;;
9370;SDS011;4725;48.384;8.984;2024-02-26T14:25:12;5.35;;;2.35;;
9370;SDS011;4725;48.384;8.984;2024-02-26T14:27:39;7.50;;;4.25;;
9370;SDS011;4725;48.384;8.984;2024-02-26T14:30:08;4.93;;;3.47;;
9370;SDS011;4725;48.384;8.984;2024-02-26T14:32:35;1.55;;;1.45;;
9370;SDS011;4725;48.384;8.984;2024-02-26T14:35:03;3.58;;;1.60;;
9370;SDS011;4725;48.384;8.984;2024-02-26T14:37:33;2.97;;;2.25;;
9370;SDS011;4725;48.384;8.984;2024-02-26T14:40:00;1.50;;;1.35;;
9370;SDS011;4725;48.384;8.984;2024-02-26T14:42:27;4.05;;;1.48;;
9370;SDS011;4725;48.384;8.984;2024-02-26T14:44:54;1.20;;;1.10;;
9370;SDS011;4725;48.384;8.984;2024-02-26T14:47:22;2.05;;;1.30;;
9370;SDS011;4725;48.384;8.984;2024-02-26T14:49:49;2.95;;;1.30;;
9370;SDS011;4725;48.384;8.984;2024-02-26T14:52:17;3.67;;;1.40;;
9370;SDS011;4725;48.384;8.984;2024-02-26T14:54:44;2.38;;;1.30;;
9370;SDS011;4725;48.384;8.984;2024-02-26T14:57:10;2.10;;;1.67;;
9370;SDS011;4725;48.384;8.984;2024-02-26T14:59:38;2.30;;;1.60;;
9370;SDS011;4725;48.384;8.984;2024-02-26T15:02:05;5.80;;;2.30;;
9370;SDS011;4725;48.384;8.984;2024-02-26T15:04:36;2.55;;;2.20;;
9370;SDS011;4725;48.384;8.984;2024-02-26T15:07:03;1.60;;;1.50;;
9370;SDS011;4725;48.384;8.984;2024-02-26T15:09:30;3.40;;;1.50;;
9370;SDS011;4725;48.384;8.984;2024-02-26T15:11:57;4.25;;;2.67;;
9370;SDS011;4725;48.384;8.984;2024-02-26T15:14:24;10.55;;;2.45;;
9370;SDS011;4725;48.384;8.984;2024-02-26T15:16:51;2.45;;;1.63;;
9370;SDS011;4725;48.384;8.984;2024-02-26T15:19:19;1.77;;;1.33;;